メインページ
METAR-TAF:

METAR-TAF

空港 :

ハガニア, グアム, アメリカ合衆国

グアム国際空港

緯度: 13-29N, 経度: 144-48E, 海抜: 91m

現時点の気象観測

当レポートは1時間6分前の02:54(UTC)に作成
の風 16kt、最大21ktの突風を伴う
気温 32°C
湿度 71%
気圧 1011 hPa
視程: 16.1km
高度2300ftの雲はほとんどない

METAR: PGUM 230254Z 09016G21KT 10SM FEW023 32/26 A2985 RMK AO2 SLP101 60000 T03170261 58018

時間: 14:00 (04:00 UTC)

予報

当レポートは4時間36分前の23:24(UTC)に作成
予報は23日の 00時(UTC)から 24日の 06時(UTC)まで有効
の風 12kt
視程: 10km
高度2000ftの雲は散在している
高度5000ftの雲は散在している
近辺でにわか雨

TAF: PGUM 222324Z 2300/2406 09012KT P6SM VCSH SCT020 SCT050

4,000以上の空港の気象観測と天気予報(METAR報とTAF報)

利用可能な観測所は地図上に黄色い丸と赤い丸で示す。

丸の上にカーソルを重ねると観測所名を参照できる。

次にクリックすると気象観測と天気予報を参照できる。

マップの切り替え:黒色「×」印の緑ボタンをクリックして拡大、「-」印の緑ボタンをクリックして縮小、緑色の三角印をクリックして隣りの地図に切り替え


METAR-TAF: